createdAt,value
2019-03-26T00:02:08.155Z,16.00
2019-03-26T00:04:36.748Z,17.00
2019-03-26T00:07:05.462Z,16.80
2019-03-26T00:09:34.179Z,16.00
2019-03-26T00:12:02.898Z,16.47
2019-03-26T00:14:31.591Z,17.70
2019-03-26T00:17:00.315Z,18.07
2019-03-26T00:19:28.999Z,17.27
2019-03-26T00:21:57.751Z,19.00
2019-03-26T00:24:26.455Z,18.20
2019-03-26T00:26:55.099Z,17.77
2019-03-26T00:29:23.688Z,19.00
2019-03-26T00:31:52.258Z,18.57
2019-03-26T00:34:20.990Z,21.97
2019-03-26T00:36:49.623Z,22.13
2019-03-26T00:39:18.307Z,20.87
2019-03-26T00:41:46.994Z,22.33
2019-03-26T00:44:15.719Z,20.30
2019-03-26T00:46:44.355Z,21.47
2019-03-26T00:49:12.968Z,20.67
2019-03-26T00:51:41.679Z,20.43
2019-03-26T00:54:10.339Z,20.67
2019-03-26T00:56:39.093Z,21.27
2019-03-26T00:59:07.853Z,20.30
2019-03-26T01:01:36.569Z,20.90
2019-03-26T01:04:05.405Z,21.73
2019-03-26T01:06:34.157Z,20.30
2019-03-26T01:09:02.858Z,21.73
2019-03-26T01:11:31.424Z,22.17
2019-03-26T01:14:00.041Z,19.73
2019-03-26T01:16:28.755Z,18.60
2019-03-26T01:18:57.498Z,19.30
2019-03-26T01:21:26.073Z,19.37
2019-03-26T01:23:54.840Z,18.57
2019-03-26T01:26:26.172Z,18.70
2019-03-26T01:28:54.984Z,20.00
2019-03-26T01:31:23.697Z,18.10
2019-03-26T01:33:52.395Z,19.90
2019-03-26T01:36:21.152Z,20.33
2019-03-26T01:38:49.790Z,20.33
2019-03-26T01:41:18.426Z,19.50
2019-03-26T01:43:47.278Z,19.27
2019-03-26T01:46:16.002Z,20.33
2019-03-26T01:48:44.691Z,19.10
2019-03-26T01:51:13.408Z,20.47
2019-03-26T01:53:42.027Z,20.57
2019-03-26T01:56:10.780Z,20.20
2019-03-26T01:58:39.441Z,21.87
2019-03-26T02:01:08.200Z,23.23
2019-03-26T02:03:36.772Z,23.60
2019-03-26T02:06:05.519Z,21.60
2019-03-26T02:08:34.170Z,21.73
2019-03-26T02:11:02.755Z,21.37
2019-03-26T02:13:31.474Z,21.90
2019-03-26T02:16:00.390Z,22.03
2019-03-26T02:18:28.951Z,22.00
2019-03-26T02:20:57.853Z,20.17
2019-03-26T02:23:26.416Z,20.13
2019-03-26T02:25:55.019Z,19.27
2019-03-26T02:28:23.645Z,19.40
2019-03-26T02:30:53.772Z,21.43
2019-03-26T02:33:22.447Z,20.80
2019-03-26T02:35:51.018Z,20.60
2019-03-26T02:38:19.596Z,22.13
2019-03-26T02:40:48.262Z,21.80
2019-03-26T02:43:16.852Z,23.90
2019-03-26T02:45:45.590Z,22.63
2019-03-26T02:48:14.220Z,21.20
2019-03-26T02:50:42.897Z,21.40
2019-03-26T02:53:11.519Z,22.50
2019-03-26T02:55:40.190Z,21.50
2019-03-26T02:58:08.812Z,23.63
2019-03-26T03:00:37.472Z,22.20
2019-03-26T03:03:06.676Z,21.07
2019-03-26T03:05:36.285Z,21.50
2019-03-26T03:08:05.093Z,21.73
2019-03-26T03:10:33.721Z,18.83
2019-03-26T03:13:05.342Z,16.53
2019-03-26T03:15:33.901Z,17.13
2019-03-26T03:18:02.478Z,17.23
2019-03-26T03:20:31.041Z,17.87
2019-03-26T03:22:59.718Z,16.97
2019-03-26T03:25:28.344Z,17.73
2019-03-26T03:27:56.983Z,16.67
2019-03-26T03:30:25.619Z,16.30
2019-03-26T03:32:54.117Z,16.33
2019-03-26T03:35:22.733Z,16.50
2019-03-26T03:37:51.341Z,17.07
2019-03-26T03:40:19.935Z,16.37
2019-03-26T03:42:48.566Z,18.17
2019-03-26T03:45:21.493Z,17.30
2019-03-26T03:47:50.927Z,17.77
2019-03-26T03:50:19.560Z,17.60
2019-03-26T03:52:49.196Z,18.70
2019-03-26T03:55:18.274Z,19.33
2019-03-26T03:57:52.752Z,19.27
2019-03-26T04:00:34.721Z,18.37
2019-03-26T04:03:04.688Z,17.37
2019-03-26T04:05:33.653Z,17.90
2019-03-26T04:08:02.285Z,18.67
2019-03-26T04:10:30.967Z,17.20
2019-03-26T04:13:00.833Z,16.63
2019-03-26T04:15:29.328Z,15.53
2019-03-26T04:17:57.899Z,16.70
2019-03-26T04:20:26.528Z,16.67
2019-03-26T04:22:55.207Z,16.00
2019-03-26T04:25:23.842Z,15.17
2019-03-26T04:27:53.711Z,15.47
2019-03-26T04:30:28.144Z,15.30
2019-03-26T04:32:58.115Z,16.80
2019-03-26T04:35:26.741Z,17.30
2019-03-26T04:37:55.242Z,17.70
2019-03-26T04:40:23.841Z,16.80
2019-03-26T04:42:52.344Z,16.63
2019-03-26T04:45:20.953Z,14.13
2019-03-26T04:47:49.504Z,15.00
2019-03-26T04:50:18.136Z,13.13
2019-03-26T04:52:46.811Z,13.33
2019-03-26T04:55:15.442Z,15.73
2019-03-26T04:57:44.029Z,14.67
2019-03-26T05:00:13.009Z,17.23
2019-03-26T05:02:41.646Z,17.03
2019-03-26T05:05:13.216Z,19.50
2019-03-26T05:07:41.840Z,18.93
2019-03-26T05:10:11.135Z,17.57
2019-03-26T05:12:39.611Z,15.10
2019-03-26T05:15:08.681Z,15.77
2019-03-26T05:17:37.312Z,14.33
2019-03-26T05:20:07.585Z,14.63
2019-03-26T05:22:36.719Z,14.20
2019-03-26T05:25:07.159Z,13.47
2019-03-26T05:27:45.242Z,13.87
2019-03-26T05:30:07.838Z,13.63
2019-03-26T05:32:36.482Z,11.90
2019-03-26T05:35:05.718Z,13.30
2019-03-26T05:37:34.322Z,12.87
2019-03-26T05:40:03.020Z,14.00
2019-03-26T05:42:31.573Z,14.23
2019-03-26T05:45:00.376Z,14.90
2019-03-26T05:47:28.893Z,14.13
2019-03-26T05:49:57.494Z,13.17
2019-03-26T05:52:26.067Z,12.20
2019-03-26T05:54:54.666Z,13.63
2019-03-26T05:57:23.950Z,12.90
2019-03-26T05:59:53.074Z,13.47
2019-03-26T06:02:21.846Z,12.17
2019-03-26T06:04:50.738Z,11.23
2019-03-26T06:07:19.485Z,11.10
2019-03-26T06:09:48.316Z,10.43
2019-03-26T06:12:19.957Z,10.90
2019-03-26T06:14:49.404Z,12.20
2019-03-26T06:17:18.390Z,11.53
2019-03-26T06:19:47.068Z,12.20
2019-03-26T06:22:15.922Z,11.97
2019-03-26T06:24:47.529Z,12.33
2019-03-26T06:27:23.797Z,13.40
2019-03-26T06:29:54.313Z,12.47
2019-03-26T06:32:24.397Z,13.13
2019-03-26T06:34:53.384Z,13.70
2019-03-26T06:37:23.392Z,13.47
2019-03-26T06:39:58.372Z,13.07
2019-03-26T06:42:27.712Z,13.27
2019-03-26T06:44:56.707Z,14.13
2019-03-26T06:47:25.310Z,13.33
2019-03-26T06:49:53.994Z,13.23
2019-03-26T06:52:22.686Z,12.57
2019-03-26T06:54:54.426Z,12.67
2019-03-26T06:57:34.860Z,13.60
2019-03-26T06:59:54.440Z,13.27
2019-03-26T07:02:23.183Z,13.17
2019-03-26T07:04:51.880Z,13.03
2019-03-26T07:07:30.868Z,12.03
2019-03-26T07:09:52.406Z,12.43
2019-03-26T07:12:21.077Z,12.87
2019-03-26T07:14:49.991Z,11.73
2019-03-26T07:17:18.796Z,13.00
2019-03-26T07:19:47.547Z,13.43
2019-03-26T07:22:17.692Z,12.03
2019-03-26T07:24:46.402Z,11.00
2019-03-26T07:27:15.187Z,11.93
2019-03-26T07:29:43.875Z,11.03
2019-03-26T07:32:12.587Z,10.70
2019-03-26T07:34:41.401Z,12.00
2019-03-26T07:37:10.237Z,11.27
2019-03-26T07:39:40.696Z,11.80
2019-03-26T07:42:09.251Z,10.90
2019-03-26T07:44:37.934Z,11.40
2019-03-26T07:47:06.677Z,10.73
2019-03-26T07:49:38.174Z,10.93
2019-03-26T07:52:06.936Z,11.07
2019-03-26T07:54:35.648Z,11.40
2019-03-26T07:57:04.441Z,10.50
2019-03-26T07:59:33.193Z,10.63
2019-03-26T08:02:01.914Z,9.97
2019-03-26T08:04:31.549Z,9.53
2019-03-26T08:07:00.125Z,10.17
2019-03-26T08:09:31.634Z,10.33
2019-03-26T08:11:59.201Z,11.40
2019-03-26T08:14:32.345Z,11.20
2019-03-26T08:17:01.553Z,11.03
2019-03-26T08:19:33.460Z,11.13
2019-03-26T08:22:04.834Z,10.90
2019-03-26T08:24:37.771Z,10.67
2019-03-26T08:27:08.478Z,11.53
2019-03-26T08:29:44.620Z,11.60
2019-03-26T08:32:13.115Z,11.60
2019-03-26T08:34:46.796Z,12.37
2019-03-26T08:37:22.180Z,10.80
2019-03-26T08:39:51.809Z,9.87
2019-03-26T08:42:27.168Z,10.73
2019-03-26T08:44:53.650Z,10.27
2019-03-26T08:47:32.004Z,9.87
2019-03-26T08:50:08.608Z,9.80
2019-03-26T08:52:43.286Z,9.53
2019-03-26T08:55:15.932Z,11.60
2019-03-26T08:57:49.576Z,9.30
2019-03-26T09:00:20.277Z,10.30
2019-03-26T09:02:50.734Z,9.40
2019-03-26T09:05:26.054Z,8.90
2019-03-26T09:08:24.505Z,9.80
2019-03-26T09:10:51.705Z,9.67
2019-03-26T09:13:15.835Z,10.17
2019-03-26T09:15:53.588Z,9.00
2019-03-26T09:18:26.023Z,8.37
2019-03-26T09:20:56.306Z,8.77
2019-03-26T09:23:25.126Z,9.13
2019-03-26T09:25:55.290Z,10.30
2019-03-26T09:28:25.989Z,10.57
2019-03-26T09:30:56.098Z,8.87
2019-03-26T09:33:27.215Z,8.23
2019-03-26T09:36:00.017Z,9.00
2019-03-26T09:38:38.766Z,8.60
2019-03-26T09:41:00.113Z,8.70
2019-03-26T09:43:32.928Z,8.63
2019-03-26T09:46:03.568Z,8.20
2019-03-26T09:48:38.559Z,8.73
2019-03-26T09:51:10.659Z,8.63
2019-03-26T09:53:37.901Z,8.90
2019-03-26T09:56:06.668Z,9.43
2019-03-26T09:58:35.477Z,9.17
2019-03-26T10:01:04.150Z,9.27
2019-03-26T10:03:32.791Z,9.27
2019-03-26T10:06:01.462Z,9.67
2019-03-26T10:08:30.132Z,9.20
2019-03-26T10:10:58.758Z,8.53
2019-03-26T10:13:27.430Z,8.73
2019-03-26T10:15:55.991Z,8.40
2019-03-26T10:18:24.713Z,8.03
2019-03-26T10:20:53.384Z,8.37
2019-03-26T10:23:21.982Z,8.27
2019-03-26T10:25:50.614Z,7.57
2019-03-26T10:28:19.298Z,8.23
2019-03-26T10:30:47.858Z,8.97
2019-03-26T10:33:16.497Z,8.90
2019-03-26T10:35:45.087Z,8.40
2019-03-26T10:38:13.763Z,8.10
2019-03-26T10:40:42.532Z,9.73
2019-03-26T10:43:14.083Z,8.85
2019-03-26T10:45:44.470Z,7.55
2019-03-26T10:48:13.084Z,8.83
2019-03-26T10:50:43.340Z,7.62
2019-03-26T10:53:12.137Z,6.85
2019-03-26T10:55:40.884Z,7.37
2019-03-26T10:58:09.638Z,7.42
2019-03-26T11:00:38.630Z,8.00
2019-03-26T11:03:07.278Z,7.72
2019-03-26T11:05:35.954Z,6.85
2019-03-26T11:08:18.425Z,6.50
2019-03-26T11:10:48.595Z,7.22
2019-03-26T11:13:17.159Z,7.17
2019-03-26T11:15:49.696Z,7.33
2019-03-26T11:18:23.020Z,6.97
2019-03-26T11:21:02.488Z,6.97
2019-03-26T11:23:22.440Z,6.12
2019-03-26T11:25:52.743Z,6.70
2019-03-26T11:28:23.130Z,7.43
2019-03-26T11:30:52.114Z,6.55
2019-03-26T11:33:20.835Z,7.20
2019-03-26T11:35:50.086Z,7.23
2019-03-26T11:38:20.255Z,7.10
2019-03-26T11:43:39.848Z,7.53
2019-03-26T11:46:10.140Z,6.93
2019-03-26T11:48:39.227Z,6.70
2019-03-26T11:51:08.248Z,6.87
2019-03-26T11:53:37.193Z,8.50
2019-03-26T11:56:06.121Z,8.63
2019-03-26T11:58:37.563Z,8.17
2019-03-26T12:01:06.252Z,8.57
2019-03-26T12:03:34.959Z,8.17
2019-03-26T12:06:03.565Z,8.83
2019-03-26T12:08:32.254Z,8.97
2019-03-26T12:11:03.947Z,9.30
2019-03-26T12:13:34.384Z,8.27
2019-03-26T12:16:08.876Z,8.63
2019-03-26T12:18:38.911Z,9.13
2019-03-26T12:21:10.781Z,9.87
2019-03-26T12:23:45.964Z,10.23
2019-03-26T12:26:14.776Z,7.93
2019-03-26T12:28:43.464Z,11.17
2019-03-26T12:31:12.213Z,11.37
2019-03-26T12:33:41.013Z,9.23
2019-03-26T12:36:09.726Z,9.30
2019-03-26T12:38:40.202Z,8.60
2019-03-26T12:41:08.995Z,9.60
2019-03-26T12:43:37.713Z,9.77
2019-03-26T12:46:06.492Z,9.17
2019-03-26T12:48:35.215Z,9.97
2019-03-26T12:51:03.978Z,9.87
2019-03-26T12:53:32.534Z,11.13
2019-03-26T12:56:02.397Z,9.27
2019-03-26T12:58:36.554Z,9.17
2019-03-26T13:01:05.887Z,10.30
2019-03-26T13:03:34.769Z,8.67
2019-03-26T13:06:03.437Z,9.77
2019-03-26T13:08:32.142Z,9.27
2019-03-26T13:11:00.893Z,9.27
2019-03-26T13:13:32.223Z,9.37
2019-03-26T13:16:04.153Z,9.87
2019-03-26T13:18:34.638Z,9.83
2019-03-26T13:21:04.279Z,9.27
2019-03-26T13:23:35.070Z,9.97
2019-03-26T13:26:06.252Z,8.57
2019-03-26T13:28:36.621Z,8.67
2019-03-26T13:31:07.870Z,9.70
2019-03-26T13:33:36.987Z,9.23
2019-03-26T13:36:06.542Z,9.67
2019-03-26T13:38:38.239Z,9.30
2019-03-26T13:41:07.010Z,9.35
2019-03-26T13:43:38.306Z,10.00
2019-03-26T13:46:11.576Z,10.33
2019-03-26T13:48:40.494Z,9.37
2019-03-26T13:51:09.451Z,8.70
2019-03-26T13:53:38.260Z,12.73
2019-03-26T13:56:08.954Z,11.40
2019-03-26T13:58:37.722Z,12.70
2019-03-26T14:01:06.437Z,11.37
2019-03-26T14:03:40.935Z,9.63
2019-03-26T14:06:10.319Z,10.60
2019-03-26T14:08:38.998Z,11.83
2019-03-26T14:11:12.225Z,11.77
2019-03-26T14:13:41.197Z,11.93
2019-03-26T14:16:09.819Z,12.90
2019-03-26T14:18:38.597Z,11.33
2019-03-26T14:21:07.345Z,12.27
2019-03-26T14:23:36.001Z,15.37
2019-03-26T14:26:04.860Z,15.70
2019-03-26T14:28:36.325Z,13.57
2019-03-26T14:31:04.956Z,13.07
2019-03-26T14:33:33.632Z,14.37
2019-03-26T14:36:02.278Z,14.73
2019-03-26T14:38:33.782Z,15.87
2019-03-26T14:41:02.468Z,16.10
2019-03-26T14:43:31.099Z,14.47
2019-03-26T14:45:59.655Z,15.67
2019-03-26T14:48:28.273Z,20.07
2019-03-26T14:50:56.912Z,18.27
2019-03-26T14:53:25.479Z,18.43
2019-03-26T14:55:54.117Z,19.63
2019-03-26T14:58:22.607Z,20.00
2019-03-26T15:00:51.245Z,14.83
2019-03-26T15:03:19.925Z,15.30
2019-03-26T15:05:48.484Z,12.07
2019-03-26T15:08:17.225Z,13.97
2019-03-26T15:10:45.863Z,17.07
2019-03-26T15:13:17.266Z,15.30
2019-03-26T15:15:45.843Z,17.40
2019-03-26T15:18:14.534Z,19.20
2019-03-26T15:20:43.171Z,18.03
2019-03-26T15:23:11.822Z,39.80
2019-03-26T15:25:40.447Z,16.47
2019-03-26T15:28:11.546Z,16.90
2019-03-26T15:30:39.408Z,14.93
2019-03-26T15:33:08.041Z,15.60
2019-03-26T15:35:36.674Z,16.27
2019-03-26T15:38:05.351Z,14.73
2019-03-26T15:40:34.030Z,15.60
2019-03-26T15:43:02.745Z,18.00
2019-03-26T15:45:31.267Z,15.77
2019-03-26T15:47:59.943Z,16.03
2019-03-26T15:50:40.324Z,18.37
2019-03-26T15:53:09.412Z,16.63
2019-03-26T15:55:38.054Z,18.70
2019-03-26T15:58:06.718Z,15.80
2019-03-26T16:00:35.410Z,18.80
2019-03-26T16:03:04.085Z,18.53
2019-03-26T16:05:32.722Z,14.40
2019-03-26T16:08:01.337Z,16.07
2019-03-26T16:10:30.085Z,15.27
2019-03-26T16:12:58.709Z,15.07
2019-03-26T16:15:27.382Z,14.90
2019-03-26T16:17:56.089Z,13.87
2019-03-26T16:20:24.760Z,15.20
2019-03-26T16:22:53.507Z,15.20
2019-03-26T16:25:25.093Z,13.50
2019-03-26T16:27:53.878Z,11.37
2019-03-26T16:30:22.564Z,13.97
2019-03-26T16:32:51.388Z,13.23
2019-03-26T16:35:20.236Z,13.87
2019-03-26T16:37:49.056Z,12.13
2019-03-26T16:40:20.581Z,12.97
2019-03-26T16:42:49.356Z,10.70
2019-03-26T16:45:18.155Z,13.70
2019-03-26T16:47:46.965Z,12.60
2019-03-26T16:50:15.873Z,12.70
2019-03-26T16:52:44.778Z,12.83
2019-03-26T16:55:16.613Z,13.07
2019-03-26T16:57:48.187Z,11.70
2019-03-26T17:00:19.833Z,13.53
2019-03-26T17:02:51.528Z,14.57
2019-03-26T17:05:23.198Z,14.30
2019-03-26T17:07:55.099Z,11.40
2019-03-26T17:10:24.155Z,11.50
2019-03-26T17:12:53.178Z,12.33
2019-03-26T17:15:22.268Z,10.70
2019-03-26T17:17:51.169Z,11.00
2019-03-26T17:20:23.754Z,11.40
2019-03-26T17:22:51.229Z,10.33
2019-03-26T17:25:20.305Z,11.77
2019-03-26T17:27:49.127Z,12.13
2019-03-26T17:30:21.113Z,12.17
2019-03-26T17:32:50.068Z,12.83
2019-03-26T17:35:19.178Z,12.47
2019-03-26T17:37:59.011Z,15.83
2019-03-26T17:40:19.050Z,15.57
2019-03-26T17:42:47.878Z,17.23
2019-03-26T17:45:16.986Z,18.60
2019-03-26T17:47:46.037Z,18.57
2019-03-26T17:50:15.530Z,17.30
2019-03-26T17:52:44.715Z,19.87
2019-03-26T17:55:14.284Z,18.40
2019-03-26T17:57:43.366Z,17.20
2019-03-26T18:00:15.879Z,17.80
2019-03-26T18:02:44.964Z,21.90
2019-03-26T18:05:28.438Z,21.00
2019-03-26T18:07:57.721Z,21.13
2019-03-26T18:10:26.737Z,25.20
2019-03-26T18:12:55.987Z,26.93
2019-03-26T18:15:25.058Z,21.83
2019-03-26T18:17:54.063Z,22.50
2019-03-26T18:20:32.521Z,24.63
2019-03-26T18:22:54.063Z,26.37
2019-03-26T18:25:23.116Z,24.67
2019-03-26T18:27:52.122Z,25.23
2019-03-26T18:30:22.633Z,23.50
2019-03-26T18:32:51.639Z,23.93
2019-03-26T18:35:20.643Z,22.60
2019-03-26T18:37:49.847Z,23.23
2019-03-26T18:40:19.061Z,21.93
2019-03-26T18:42:48.334Z,21.77
2019-03-26T18:45:17.427Z,21.20
2019-03-26T18:47:46.484Z,22.70
2019-03-26T18:50:15.798Z,22.07
2019-03-26T18:52:48.032Z,21.27
2019-03-26T18:55:17.214Z,21.23
2019-03-26T18:57:46.363Z,22.30
2019-03-26T19:00:21.155Z,22.13
2019-03-26T19:02:50.172Z,23.93
2019-03-26T19:05:19.200Z,23.90
2019-03-26T19:07:48.342Z,23.73
2019-03-26T19:10:29.060Z,22.60
2019-03-26T19:12:58.162Z,22.20
2019-03-26T19:15:27.249Z,21.33
2019-03-26T19:18:03.447Z,22.87
2019-03-26T19:20:32.618Z,22.43
2019-03-26T19:23:01.635Z,23.50
2019-03-26T19:25:32.211Z,25.20
2019-03-26T19:28:01.288Z,25.87
2019-03-26T19:30:30.304Z,25.60
2019-03-26T19:33:00.769Z,23.80
2019-03-26T19:35:29.929Z,23.67
2019-03-26T19:37:59.058Z,21.63
2019-03-26T19:40:28.270Z,21.30
2019-03-26T19:43:09.755Z,20.07
2019-03-26T19:45:28.292Z,17.77
2019-03-26T19:48:00.638Z,18.27
2019-03-26T19:50:29.684Z,18.23
2019-03-26T19:52:58.777Z,15.43
2019-03-26T19:55:27.951Z,17.63
2019-03-26T19:57:59.072Z,18.10
2019-03-26T20:00:28.236Z,15.97
2019-03-26T20:02:57.405Z,17.77
2019-03-26T20:05:26.490Z,17.87
2019-03-26T20:07:55.546Z,18.03
2019-03-26T20:10:24.881Z,18.73
2019-03-26T20:12:54.070Z,17.57
2019-03-26T20:15:23.790Z,18.60
2019-03-26T20:17:52.796Z,16.17
2019-03-26T20:20:21.924Z,16.13
2019-03-26T20:22:51.150Z,16.97
2019-03-26T20:25:20.307Z,16.03
2019-03-26T20:27:49.468Z,15.40
2019-03-26T20:30:19.030Z,16.37
2019-03-26T20:32:48.064Z,15.17
2019-03-26T20:35:17.090Z,17.53
2019-03-26T20:37:46.205Z,15.37
2019-03-26T20:40:15.635Z,15.77
2019-03-26T20:42:44.760Z,12.90
2019-03-26T20:45:14.695Z,14.00
2019-03-26T20:47:43.742Z,12.03
2019-03-26T20:50:13.274Z,12.03
2019-03-26T20:52:42.351Z,10.10
2019-03-26T20:55:13.063Z,9.90
2019-03-26T20:57:42.183Z,9.70
2019-03-26T21:00:13.175Z,9.50
2019-03-26T21:02:42.221Z,10.07
2019-03-26T21:05:11.606Z,9.50
2019-03-26T21:07:40.664Z,9.93
2019-03-26T21:10:09.873Z,10.30
2019-03-26T21:12:38.610Z,11.43
2019-03-26T21:15:09.408Z,11.57
2019-03-26T21:17:38.717Z,12.63
2019-03-26T21:20:11.214Z,14.40
2019-03-26T21:22:40.231Z,15.30
2019-03-26T21:25:09.847Z,14.77
2019-03-26T21:27:38.885Z,16.67
2019-03-26T21:30:16.166Z,15.50
2019-03-26T21:32:45.235Z,18.53
2019-03-26T21:35:15.023Z,18.03
2019-03-26T21:37:43.931Z,19.10
2019-03-26T21:40:13.241Z,19.17
2019-03-26T21:42:41.981Z,18.30
2019-03-26T21:45:12.936Z,20.93
2019-03-26T21:47:41.620Z,17.40
2019-03-26T21:50:10.616Z,15.90
2019-03-26T21:52:39.331Z,15.40
2019-03-26T21:55:13.259Z,15.67
2019-03-26T21:57:40.290Z,17.63
2019-03-26T22:00:12.857Z,18.90
2019-03-26T22:02:41.527Z,18.43
2019-03-26T22:05:10.356Z,16.10
2019-03-26T22:07:39.053Z,15.53
2019-03-26T22:10:07.941Z,15.50
2019-03-26T22:12:36.565Z,15.77
2019-03-26T22:15:10.386Z,15.10
2019-03-26T22:17:39.088Z,15.23
2019-03-26T22:20:08.329Z,14.90
2019-03-26T22:22:36.937Z,13.23
2019-03-26T22:25:09.127Z,13.63
2019-03-26T22:27:37.712Z,15.60
2019-03-26T22:30:09.330Z,14.60
2019-03-26T22:32:37.939Z,15.43
2019-03-26T22:35:08.341Z,16.07
2019-03-26T22:37:36.976Z,16.47
2019-03-26T22:40:07.916Z,16.87
2019-03-26T22:42:36.538Z,17.70
2019-03-26T22:45:09.726Z,17.70
2019-03-26T22:47:39.609Z,17.70
2019-03-26T22:50:09.046Z,15.37
2019-03-26T22:52:37.689Z,15.77
2019-03-26T22:55:08.826Z,17.70
2019-03-26T22:57:38.360Z,18.30
2019-03-26T23:00:15.846Z,17.67
2019-03-26T23:02:44.477Z,17.70
2019-03-26T23:05:14.206Z,16.30
2019-03-26T23:07:42.775Z,16.90
2019-03-26T23:10:12.557Z,15.97
2019-03-26T23:12:41.157Z,16.50
2019-03-26T23:15:15.256Z,15.53
2019-03-26T23:17:43.942Z,15.77
2019-03-26T23:20:12.567Z,14.33
2019-03-26T23:22:41.128Z,14.20
2019-03-26T23:25:09.907Z,14.57
2019-03-26T23:27:38.394Z,15.30
2019-03-26T23:30:07.966Z,14.87
2019-03-26T23:32:36.537Z,15.63
2019-03-26T23:35:05.167Z,14.73
2019-03-26T23:37:33.809Z,15.23
2019-03-26T23:40:02.395Z,15.07
2019-03-26T23:42:30.892Z,14.27
2019-03-26T23:44:59.580Z,14.13
2019-03-26T23:47:28.137Z,14.30
2019-03-26T23:49:56.693Z,14.17
2019-03-26T23:52:25.379Z,13.03
2019-03-26T23:54:53.942Z,13.40
2019-03-26T23:57:22.430Z,12.30
2019-03-26T23:59:50.943Z,11.90
